Time;durP1;ratioP1;P1;durP2;ratioP2;P2;SDS_P1;SDS_P2;PMS_P1;PMS_P2;Temp;Humidity;BMP_temperature;BMP_pressure;BME280_temperature;BME280_humidity;BME280_pressure;Samples;Min_cycle;Max_cycle;Signal;HPM_P1;HPM_P2
2021/08/29 03:02:46;;;;;;;5.43;2.70;;;;;;;;;;6006886;23;21127;31
2021/08/29 06:08:23;;;;;;;2.33;1.23;;;;;;;;;;5417254;23;20056;-94
2021/08/29 06:10:49;;;;;;;2.22;1.35;;;;;;;;;;4912040;29;20126;-96
2021/08/29 06:13:15;;;;;;;2.38;1.50;;;;;;;;;;4904685;29;20037;-96
2021/08/29 06:15:47;;;;;;;2.97;1.63;;;;;;;;;;4906597;29;20035;-94
2021/08/29 06:18:14;;;;;;;2.70;1.60;;;;;;;;;;4905042;29;20053;-94
2021/08/29 06:20:41;;;;;;;2.22;1.27;;;;;;;;;;4904324;29;20084;-95
2021/08/29 06:23:07;;;;;;;2.30;1.30;;;;;;;;;;4904606;29;20024;-95
2021/08/29 06:25:33;;;;;;;2.47;1.30;;;;;;;;;;4907717;29;20050;-94
2021/08/29 06:27:59;;;;;;;2.53;1.58;;;;;;;;;;4912142;29;20048;-94
2021/08/29 06:30:26;;;;;;;2.50;1.40;;;;;;;;;;4903701;29;20052;-96
2021/08/29 06:32:52;;;;;;;2.28;1.45;;;;;;;;;;4903620;29;20087;-95
2021/08/29 06:35:18;;;;;;;3.53;1.40;;;;;;;;;;4903359;29;20393;-95
2021/08/29 06:37:44;;;;;;;2.50;1.63;;;;;;;;;;4903920;29;20024;-95
2021/08/29 06:40:11;;;;;;;2.30;1.40;;;;;;;;;;4903815;29;20083;-94
2021/08/29 06:42:37;;;;;;;2.60;1.20;;;;;;;;;;4903418;29;20032;-91
2021/08/29 06:45:04;;;;;;;2.47;1.58;;;;;;;;;;4903657;29;20087;-94
2021/08/29 06:47:30;;;;;;;2.90;1.38;;;;;;;;;;4903194;29;20084;-92
2021/08/29 06:49:56;;;;;;;4.13;1.33;;;;;;;;;;4903155;29;20122;-92
2021/08/29 06:52:23;;;;;;;2.75;1.35;;;;;;;;;;4903321;29;20111;-93
2021/08/29 06:54:49;;;;;;;2.08;1.20;;;;;;;;;;4903862;29;20024;-93
2021/08/29 06:57:15;;;;;;;2.08;1.00;;;;;;;;;;4902768;29;20032;-94
2021/08/29 06:59:41;;;;;;;6.13;1.27;;;;;;;;;;4908851;29;20024;-94
2021/08/29 07:02:07;;;;;;;1.92;0.90;;;;;;;;;;4902678;29;20067;-94
2021/08/29 07:04:33;;;;;;;1.70;0.90;;;;;;;;;;4902682;29;20473;-96
2021/08/29 07:07:00;;;;;;;2.72;1.65;;;;;;;;;;4902801;29;20040;-92
2021/08/29 07:09:26;;;;;;;2.47;1.00;;;;;;;;;;4914709;29;20134;-95
2021/08/29 07:11:52;;;;;;;2.25;1.20;;;;;;;;;;4937019;29;20031;-93
2021/08/29 07:14:18;;;;;;;2.17;1.08;;;;;;;;;;4936995;29;20079;-92
2021/08/29 07:16:44;;;;;;;6.57;1.10;;;;;;;;;;4937146;29;20039;-95
2021/08/29 07:19:10;;;;;;;2.22;1.13;;;;;;;;;;4936709;29;20055;-94
2021/08/29 07:21:37;;;;;;;1.98;1.17;;;;;;;;;;4937215;29;20035;-94
2021/08/29 07:24:03;;;;;;;2.17;1.00;;;;;;;;;;4937407;29;20031;-93
2021/08/29 07:26:29;;;;;;;2.55;1.27;;;;;;;;;;4937344;29;20032;-95
2021/08/29 07:28:57;;;;;;;3.67;1.25;;;;;;;;;;4937533;29;20091;-93
2021/08/29 07:31:23;;;;;;;2.05;0.90;;;;;;;;;;4937357;29;20031;-95
2021/08/29 07:33:49;;;;;;;1.73;0.90;;;;;;;;;;4937203;29;20028;-92
2021/08/29 07:36:16;;;;;;;4.15;1.17;;;;;;;;;;4938605;29;20387;-93
2021/08/29 07:38:45;;;;;;;1.70;0.85;;;;;;;;;;4949707;29;20068;-92
2021/08/29 07:41:14;;;;;;;2.40;1.10;;;;;;;;;;4938152;29;20030;-93
2021/08/29 07:43:40;;;;;;;1.90;0.98;;;;;;;;;;4937789;29;20109;-95
2021/08/29 07:46:07;;;;;;;1.50;0.90;;;;;;;;;;4937544;29;20071;-93
2021/08/29 07:48:33;;;;;;;6.45;1.40;;;;;;;;;;4936429;29;20035;-95
2021/08/29 07:50:59;;;;;;;1.65;0.80;;;;;;;;;;4936741;29;20031;-95
2021/08/29 07:53:25;;;;;;;5.38;1.20;;;;;;;;;;4936679;29;20036;-94
2021/08/29 07:55:52;;;;;;;1.73;0.90;;;;;;;;;;4936885;29;20436;-94
2021/08/29 07:58:18;;;;;;;1.98;1.00;;;;;;;;;;4936835;29;20540;-95
2021/08/29 08:00:45;;;;;;;1.80;0.85;;;;;;;;;;4936706;29;20036;-95
2021/08/29 08:03:11;;;;;;;2.28;1.25;;;;;;;;;;4937104;29;20028;-94
2021/08/29 08:05:37;;;;;;;3.15;1.45;;;;;;;;;;4936359;29;20040;-95
2021/08/29 08:08:04;;;;;;;1.80;1.20;;;;;;;;;;4935353;29;20043;-95
2021/08/29 08:10:31;;;;;;;2.10;1.20;;;;;;;;;;4902070;29;20405;-96
2021/08/29 08:12:57;;;;;;;2.17;1.30;;;;;;;;;;4909019;29;20055;-94
2021/08/29 08:15:24;;;;;;;2.47;1.38;;;;;;;;;;4901678;29;20084;-95
2021/08/29 08:17:50;;;;;;;1.83;1.17;;;;;;;;;;4901770;29;20036;-95
2021/08/29 08:20:16;;;;;;;7.30;1.20;;;;;;;;;;4901787;29;20031;-93
2021/08/29 08:22:47;;;;;;;3.05;1.20;;;;;;;;;;4901969;29;20036;-95
2021/08/29 08:25:14;;;;;;;1.77;1.08;;;;;;;;;;4887107;29;20039;-94
2021/08/29 08:27:40;;;;;;;4.13;1.25;;;;;;;;;;4902024;29;20040;-95
2021/08/29 08:30:07;;;;;;;2.13;0.80;;;;;;;;;;4911903;29;20036;-93
2021/08/29 08:32:34;;;;;;;1.67;1.00;;;;;;;;;;4935159;29;20084;-95
2021/08/29 08:35:01;;;;;;;1.90;1.05;;;;;;;;;;4907116;29;20478;-95
2021/08/29 08:37:27;;;;;;;1.77;0.88;;;;;;;;;;4905902;29;20083;-95
2021/08/29 08:39:53;;;;;;;2.35;1.40;;;;;;;;;;4907658;29;20040;-94
2021/08/29 08:42:19;;;;;;;1.50;0.90;;;;;;;;;;4905673;29;20036;-94
2021/08/29 08:44:47;;;;;;;1.55;0.90;;;;;;;;;;4905275;29;20483;-95
2021/08/29 08:47:16;;;;;;;7.18;1.45;;;;;;;;;;4905521;29;20114;-95
2021/08/29 08:49:43;;;;;;;2.72;1.17;;;;;;;;;;4905251;29;20036;-96
2021/08/29 08:52:15;;;;;;;1.45;0.80;;;;;;;;;;4904908;29;20028;-95
2021/08/29 08:54:42;;;;;;;1.37;0.73;;;;;;;;;;4905196;29;20028;-94
2021/08/29 08:57:09;;;;;;;1.75;0.77;;;;;;;;;;4904980;29;20059;-95
2021/08/29 08:59:38;;;;;;;1.63;1.08;;;;;;;;;;4904936;29;20060;-95
2021/08/29 09:02:04;;;;;;;6.38;0.90;;;;;;;;;;4905113;29;20115;-95
2021/08/29 09:04:30;;;;;;;1.48;0.82;;;;;;;;;;4905034;29;20139;-95
2021/08/29 09:06:59;;;;;;;1.67;0.90;;;;;;;;;;4905074;29;20050;-95
2021/08/29 09:09:26;;;;;;;2.30;1.20;;;;;;;;;;4917223;29;20106;-95
2021/08/29 09:11:52;;;;;;;1.75;1.00;;;;;;;;;;4961045;29;20020;-93
2021/08/29 09:14:19;;;;;;;1.58;0.90;;;;;;;;;;4951015;29;20082;-95
2021/08/29 09:16:51;;;;;;;1.73;0.93;;;;;;;;;;4940768;29;20047;-94
2021/08/29 09:19:17;;;;;;;;;;;;;;;;;;4939858;29;20115;-96
2021/08/29 09:21:43;;;;;;;1.90;1.17;;;;;;;;;;4923453;29;19907;-95
2021/08/29 09:24:15;;;;;;;4.72;1.13;;;;;;;;;;4939840;29;20099;-96
2021/08/29 09:26:43;;;;;;;2.05;1.08;;;;;;;;;;4939377;29;20083;-94
2021/08/29 09:29:20;;;;;;;1.67;0.98;;;;;;;;;;4939448;29;20477;-95
2021/08/29 09:31:47;;;;;;;2.03;1.00;;;;;;;;;;4939328;29;20500;-94
2021/08/29 09:34:14;;;;;;;2.00;1.10;;;;;;;;;;4939217;29;20028;-95
2021/08/29 09:36:41;;;;;;;5.32;1.10;;;;;;;;;;4939112;29;20043;-95
2021/08/29 09:39:14;;;;;;;1.60;0.82;;;;;;;;;;4939230;29;20028;-94
2021/08/29 09:41:40;;;;;;;1.88;1.10;;;;;;;;;;4939019;28;20032;-95
2021/08/29 09:44:10;;;;;;;1.73;1.15;;;;;;;;;;4939038;29;20063;-94
2021/08/29 09:46:49;;;;;;;2.25;1.20;;;;;;;;;;4923181;29;20139;-95
2021/08/29 09:49:22;;;;;;;2.63;1.10;;;;;;;;;;4940604;29;20055;-92
2021/08/29 09:51:48;;;;;;;2.13;1.20;;;;;;;;;;4939405;29;20070;-93
2021/08/29 09:54:29;;;;;;;1.98;1.10;;;;;;;;;;4939303;29;20032;-94
2021/08/29 09:56:55;;;;;;;2.72;1.30;;;;;;;;;;4938604;29;20054;-94
2021/08/29 09:59:47;;;;;;;1.88;1.20;;;;;;;;;;4938893;29;20480;-94
2021/08/29 10:02:21;;;;;;;2.13;1.15;;;;;;;;;;4920701;29;20559;-94
2021/08/29 10:04:47;;;;;;;2.15;1.40;;;;;;;;;;4938676;29;20098;-94
2021/08/29 10:07:15;;;;;;;2.83;1.38;;;;;;;;;;4938525;29;20044;-94
2021/08/29 10:09:42;;;;;;;3.70;1.20;;;;;;;;;;4938374;29;20130;-94
2021/08/29 10:12:10;;;;;;;2.22;1.25;;;;;;;;;;4939297;29;20043;-95
2021/08/29 10:14:37;;;;;;;2.80;1.30;;;;;;;;;;4938419;29;20040;-93
2021/08/29 10:17:04;;;;;;;2.45;1.23;;;;;;;;;;4938399;29;20030;-94
2021/08/29 10:19:31;;;;;;;3.40;1.40;;;;;;;;;;4938754;29;20032;-96
2021/08/29 10:21:57;;;;;;;3.00;1.50;;;;;;;;;;4938493;29;20031;-94
2021/08/29 10:24:27;;;;;;;2.95;1.90;;;;;;;;;;4941332;29;20357;-93
2021/08/29 10:26:54;;;;;;;2.95;1.90;;;;;;;;;;4941389;29;20441;-94
2021/08/29 10:29:28;;;;;;;3.40;1.75;;;;;;;;;;4938220;29;20063;-93
2021/08/29 10:31:59;;;;;;;3.20;1.80;;;;;;;;;;4938530;29;20024;-92
2021/08/29 10:34:26;;;;;;;6.00;1.52;;;;;;;;;;4938690;29;20111;-94
2021/08/29 10:36:56;;;;;;;2.42;1.48;;;;;;;;;;4938165;29;20031;-94
2021/08/29 10:39:23;;;;;;;2.67;1.70;;;;;;;;;;4938453;29;20111;-94
2021/08/29 10:41:49;;;;;;;3.50;1.75;;;;;;;;;;4938298;29;20032;-93
2021/08/29 10:44:16;;;;;;;3.05;1.90;;;;;;;;;;4946594;29;20036;-92
2021/08/29 10:46:46;;;;;;;2.75;1.73;;;;;;;;;;4946081;29;20047;-93
2021/08/29 10:49:15;;;;;;;2.30;1.50;;;;;;;;;;4939978;29;20030;-96
2021/08/29 10:51:42;;;;;;;2.72;1.73;;;;;;;;;;4943993;29;20114;-95
2021/08/29 10:54:12;;;;;;;2.83;1.75;;;;;;;;;;4937863;29;20031;-94
2021/08/29 10:56:40;;;;;;;3.13;1.88;;;;;;;;;;4938038;29;20026;-93
2021/08/29 10:59:10;;;;;;;5.25;1.75;;;;;;;;;;4939954;29;20040;-93
2021/08/29 11:01:43;;;;;;;2.40;1.73;;;;;;;;;;4942804;29;20019;-93
2021/08/29 11:04:19;;;;;;;4.43;1.73;;;;;;;;;;4938342;29;20027;-93
2021/08/29 11:06:49;;;;;;;5.97;1.80;;;;;;;;;;4938238;29;20038;-94
2021/08/29 11:09:37;;;;;;;3.08;1.83;;;;;;;;;;4937598;29;20416;-91
2021/08/29 11:12:04;;;;;;;3.90;1.67;;;;;;;;;;4938859;29;20038;-93
2021/08/29 11:14:47;;;;;;;2.90;1.45;;;;;;;;;;4943742;29;20087;-90
2021/08/29 11:17:20;;;;;;;2.53;1.35;;;;;;;;;;4937716;29;20026;-93
2021/08/29 11:19:48;;;;;;;2.30;1.45;;;;;;;;;;4937200;29;20063;-93
2021/08/29 11:22:15;;;;;;;5.75;1.85;;;;;;;;;;4939116;29;20076;-91
2021/08/29 11:24:48;;;;;;;4.10;1.90;;;;;;;;;;4937216;29;20031;-94
2021/08/29 11:27:33;;;;;;;3.17;1.40;;;;;;;;;;4938549;29;20032;-92
2021/08/29 11:30:00;;;;;;;2.80;1.55;;;;;;;;;;4936783;29;20028;-94
2021/08/29 11:32:33;;;;;;;2.55;1.33;;;;;;;;;;4937159;29;20031;-93
2021/08/29 11:35:05;;;;;;;3.25;1.23;;;;;;;;;;4937193;29;20031;-94
2021/08/29 11:37:32;;;;;;;2.72;1.48;;;;;;;;;;4941987;29;20083;-93
2021/08/29 11:40:05;;;;;;;2.25;1.40;;;;;;;;;;4937043;29;20028;-93
2021/08/29 11:42:31;;;;;;;2.80;1.40;;;;;;;;;;4936666;29;20492;-93
2021/08/29 11:44:58;;;;;;;2.20;1.30;;;;;;;;;;4936854;29;20063;-94
2021/08/29 11:47:41;;;;;;;2.45;1.35;;;;;;;;;;4936996;29;20152;-93
2021/08/29 11:50:08;;;;;;;1.70;1.30;;;;;;;;;;4937782;29;20059;-90
2021/08/29 11:52:39;;;;;;;2.35;1.60;;;;;;;;;;4936836;29;20063;-93
2021/08/29 11:55:07;;;;;;;4.07;1.55;;;;;;;;;;4936903;29;20024;-93
2021/08/29 11:57:45;;;;;;;4.05;1.80;;;;;;;;;;4936517;29;20032;-93
2021/08/29 12:00:11;;;;;;;3.08;1.50;;;;;;;;;;4936867;29;20027;-92
2021/08/29 12:02:41;;;;;;;3.17;1.70;;;;;;;;;;4922411;29;20028;-94
2021/08/29 12:05:17;;;;;;;3.55;1.40;;;;;;;;;;4919870;29;20063;-94
2021/08/29 12:08:04;;;;;;;2.00;1.20;;;;;;;;;;4936538;29;20050;-88
2021/08/29 12:10:30;;;;;;;3.80;1.20;;;;;;;;;;4908026;29;20079;-93
2021/08/29 12:13:01;;;;;;;1.75;1.10;;;;;;;;;;4905995;29;20212;-93
2021/08/29 12:15:37;;;;;;;2.13;1.17;;;;;;;;;;4906363;29;20115;-91
2021/08/29 12:18:05;;;;;;;2.95;1.20;;;;;;;;;;4912354;29;20024;-94
2021/08/29 12:20:31;;;;;;;2.80;1.17;;;;;;;;;;4911456;29;20042;-92
2021/08/29 12:23:09;;;;;;;2.65;1.20;;;;;;;;;;4905948;29;20115;-93
2021/08/29 12:25:37;;;;;;;3.97;1.10;;;;;;;;;;4910335;29;20027;-89
2021/08/29 12:28:08;;;;;;;3.42;1.05;;;;;;;;;;4924482;29;20035;-92
2021/08/29 12:30:34;;;;;;;1.95;1.00;;;;;;;;;;4922097;29;20074;-91
2021/08/29 12:33:14;;;;;;;2.60;1.10;;;;;;;;;;4913827;29;20107;-93
2021/08/29 12:35:44;;;;;;;2.25;1.38;;;;;;;;;;4907705;29;20032;-92
2021/08/29 12:38:22;;;;;;;2.00;1.10;;;;;;;;;;4904081;29;20029;-95
2021/08/29 12:40:50;;;;;;;2.58;1.42;;;;;;;;;;4898364;29;20036;-91
2021/08/29 12:43:17;;;;;;;3.13;1.50;;;;;;;;;;4917486;29;20032;-91
2021/08/29 12:45:43;;;;;;;3.05;1.55;;;;;;;;;;4912918;29;20034;-91
2021/08/29 12:48:10;;;;;;;3.00;1.67;;;;;;;;;;4913723;29;20064;-96
2021/08/29 12:50:42;;;;;;;4.55;1.63;;;;;;;;;;4917032;29;20048;-90
2021/08/29 12:53:10;;;;;;;3.40;1.90;;;;;;;;;;4909828;29;20115;-93
2021/08/29 12:55:36;;;;;;;4.10;1.52;;;;;;;;;;4903806;29;20051;-93
2021/08/29 12:58:11;;;;;;;2.33;1.50;;;;;;;;;;4902307;29;20033;-95
2021/08/29 13:00:38;;;;;;;2.25;1.45;;;;;;;;;;4901420;29;20087;-94
2021/08/29 13:03:04;;;;;;;6.47;1.50;;;;;;;;;;4900959;29;20062;-94
2021/08/29 13:05:38;;;;;;;2.53;1.40;;;;;;;;;;4901139;29;20032;-94
2021/08/29 13:08:04;;;;;;;8.20;1.55;;;;;;;;;;4905267;29;20094;-91
2021/08/29 13:10:31;;;;;;;2.35;1.60;;;;;;;;;;4901193;29;20123;-90
2021/08/29 13:13:08;;;;;;;1.98;1.30;;;;;;;;;;4903333;29;20174;-89
2021/08/29 13:15:35;;;;;;;3.58;1.88;;;;;;;;;;4903968;29;20021;-88
2021/08/29 13:18:01;;;;;;;2.75;1.80;;;;;;;;;;4904997;29;20477;-90
2021/08/29 13:20:35;;;;;;;2.83;1.70;;;;;;;;;;4904382;29;20035;-89
2021/08/29 13:23:02;;;;;;;2.80;1.67;;;;;;;;;;4905212;29;20036;-89
2021/08/29 13:25:29;;;;;;;2.70;1.42;;;;;;;;;;4904290;29;20028;-90
2021/08/29 13:27:56;;;;;;;4.70;1.90;;;;;;;;;;4921875;29;20047;-90
2021/08/29 13:30:23;;;;;;;4.90;1.70;;;;;;;;;;4911223;29;20107;-89
2021/08/29 13:32:50;;;;;;;3.22;1.65;;;;;;;;;;4904602;29;20396;-90
2021/08/29 13:35:17;;;;;;;2.95;1.77;;;;;;;;;;4908001;29;20024;-91
2021/08/29 13:37:44;;;;;;;2.92;1.92;;;;;;;;;;4904298;29;20496;-90
2021/08/29 13:40:14;;;;;;;3.33;1.90;;;;;;;;;;4904212;29;20032;-89
2021/08/29 13:42:40;;;;;;;3.40;1.77;;;;;;;;;;4904089;29;20488;-89
2021/08/29 13:45:10;;;;;;;2.88;1.65;;;;;;;;;;4904038;29;20028;-91
2021/08/29 13:47:36;;;;;;;2.95;1.75;;;;;;;;;;4904439;29;20139;-93
2021/08/29 13:50:03;;;;;;;4.72;1.88;;;;;;;;;;4904263;29;20029;-91
2021/08/29 13:52:36;;;;;;;3.97;1.80;;;;;;;;;;4904642;29;20039;-88
2021/08/29 13:55:02;;;;;;;3.92;1.90;;;;;;;;;;4904254;29;20028;-91
2021/08/29 13:57:28;;;;;;;2.70;1.80;;;;;;;;;;4904222;29;20044;-86
2021/08/29 13:59:55;;;;;;;4.75;1.95;;;;;;;;;;4904444;29;20067;-94
2021/08/29 14:02:21;;;;;;;3.90;1.50;;;;;;;;;;4903657;29;20063;-94
2021/08/29 14:04:47;;;;;;;4.15;1.55;;;;;;;;;;4904456;29;20028;-93
2021/08/29 14:07:14;;;;;;;2.70;1.45;;;;;;;;;;4908952;29;20036;-91
2021/08/29 14:09:40;;;;;;;3.10;1.48;;;;;;;;;;4928511;29;20131;-93
2021/08/29 14:12:06;;;;;;;2.67;1.70;;;;;;;;;;4922383;29;20500;-93
2021/08/29 14:14:33;;;;;;;2.90;1.50;;;;;;;;;;4922125;29;20031;-92
2021/08/29 14:16:59;;;;;;;2.60;1.60;;;;;;;;;;4922380;29;20064;-88
2021/08/29 14:19:25;;;;;;;2.70;1.30;;;;;;;;;;4922256;29;20028;-93
2021/08/29 14:21:51;;;;;;;3.28;1.52;;;;;;;;;;4922321;29;20110;-90
2021/08/29 14:24:17;;;;;;;3.38;1.80;;;;;;;;;;4921780;29;20030;-88
2021/08/29 14:26:44;;;;;;;2.72;1.58;;;;;;;;;;4921446;29;20127;-95
2021/08/29 14:29:27;;;;;;;4.38;1.88;;;;;;;;;;4926125;29;20035;-96
2021/08/29 14:34:59;;;;;;;2.75;1.40;;;;;;;;;;4948826;29;20476;-91
2021/08/29 14:37:44;;;;;;;1.88;1.30;;;;;;;;;;4927592;29;20028;-96
2021/08/29 14:40:14;;;;;;;2.88;1.50;;;;;;;;;;5141050;23;20098;-96
2021/08/29 14:42:47;;;;;;;4.47;1.70;;;;;;;;;;4933453;29;20036;-92
2021/08/29 14:45:16;;;;;;;2.30;1.30;;;;;;;;;;4933837;29;20052;-96
2021/08/29 14:47:43;;;;;;;2.63;1.40;;;;;;;;;;4927342;29;20044;-95
2021/08/29 14:56:44;;;;;;;3.80;1.60;;;;;;;;;;4785132;30;20031;-95
2021/08/29 14:59:40;;;;;;;3.15;1.83;;;;;;;;;;4762439;30;20050;-96
2021/08/29 15:02:29;;;;;;;3.75;1.90;;;;;;;;;;4783336;30;20061;-96
2021/08/29 15:05:24;;;;;;;3.22;1.48;;;;;;;;;;4777640;30;20039;-96
2021/08/29 15:08:19;;;;;;;6.10;1.33;;;;;;;;;;4773722;30;20094;-92
2021/08/29 15:11:00;;;;;;;1.90;1.10;;;;;;;;;;4734379;30;20071;-91
2021/08/29 15:16:48;;;;;;;2.00;1.00;;;;;;;;;;5069447;23;20046;-96
2021/08/29 15:19:15;;;;;;;2.70;1.10;;;;;;;;;;4910448;29;20036;-91
2021/08/29 15:21:42;;;;;;;2.85;0.95;;;;;;;;;;4908730;29;20063;-93
2021/08/29 15:24:08;;;;;;;2.20;1.10;;;;;;;;;;4905026;29;20091;-84
2021/08/29 15:26:35;;;;;;;2.30;1.40;;;;;;;;;;4906048;29;20088;-88
2021/08/29 15:29:04;;;;;;;4.07;1.17;;;;;;;;;;4904078;29;20036;-89
2021/08/29 15:31:33;;;;;;;2.45;1.02;;;;;;;;;;4909368;29;20004;-88
2021/08/29 15:34:14;;;;;;;2.72;1.00;;;;;;;;;;4918593;29;20043;-92
2021/08/29 15:37:09;;;;;;;3.83;1.00;;;;;;;;;;4928714;29;20031;-96
2021/08/29 15:42:41;;;;;;;2.22;1.15;;;;;;;;;;5208551;23;20059;-94
2021/08/29 15:50:55;;;;;;;3.30;1.48;;;;;;;;;;5354510;23;20528;-96
2021/08/29 15:53:23;;;;;;;3.92;1.27;;;;;;;;;;4881902;29;20065;-87
2021/08/29 15:55:49;;;;;;;2.40;1.25;;;;;;;;;;4891255;29;20427;-96
2021/08/29 15:58:16;;;;;;;2.25;1.20;;;;;;;;;;4889880;29;20037;-96
2021/08/29 16:00:43;;;;;;;2.20;1.20;;;;;;;;;;4972591;23;20044;-95
2021/08/29 16:03:09;;;;;;;2.40;1.15;;;;;;;;;;4949175;29;20096;-96
2021/08/29 16:05:38;;;;;;;2.17;1.15;;;;;;;;;;4943950;29;20174;-91
2021/08/29 16:08:04;;;;;;;1.90;1.23;;;;;;;;;;4938202;29;20042;-90
2021/08/29 16:10:30;;;;;;;2.75;1.52;;;;;;;;;;4942150;29;20099;-96
2021/08/29 16:12:59;;;;;;;2.17;1.30;;;;;;;;;;4944138;29;20034;-96
2021/08/29 16:18:23;;;;;;;2.60;1.58;;;;;;;;;;5188781;23;20089;-95
2021/08/29 17:13:51;;;;;;;2.78;1.70;;;;;;;;;;4901673;29;20052;-90
2021/08/29 17:16:17;;;;;;;4.60;2.35;;;;;;;;;;4904682;29;20520;-90
2021/08/29 17:18:44;;;;;;;10.02;4.22;;;;;;;;;;4904946;29;20128;-91
2021/08/29 17:21:12;;;;;;;22.27;6.60;;;;;;;;;;4905599;29;20035;-86
2021/08/29 17:23:40;;;;;;;16.63;6.72;;;;;;;;;;4905582;29;20028;-92
2021/08/29 17:26:06;;;;;;;10.48;4.57;;;;;;;;;;4906534;29;20031;-92
2021/08/29 17:28:34;;;;;;;16.77;6.53;;;;;;;;;;4922074;29;20040;-92
2021/08/29 17:31:01;;;;;;;15.43;5.40;;;;;;;;;;4904697;29;20020;-90
2021/08/29 17:33:27;;;;;;;7.32;3.05;;;;;;;;;;4905116;29;20035;-92
2021/08/29 17:35:54;;;;;;;5.20;1.98;;;;;;;;;;4905246;29;20032;-91
2021/08/29 17:38:21;;;;;;;4.75;1.75;;;;;;;;;;4905661;29;20139;-92
2021/08/29 17:40:47;;;;;;;3.35;1.70;;;;;;;;;;4903879;29;20056;-93
2021/08/29 17:43:14;;;;;;;2.30;1.40;;;;;;;;;;4904255;29;20035;-92
2021/08/29 17:45:40;;;;;;;4.88;1.40;;;;;;;;;;4905550;29;20421;-92
2021/08/29 17:48:06;;;;;;;6.57;1.30;;;;;;;;;;4904293;29;20047;-93
2021/08/29 17:50:34;;;;;;;2.60;1.15;;;;;;;;;;4904185;29;20481;-92
2021/08/29 17:53:00;;;;;;;2.20;1.17;;;;;;;;;;4904990;29;20096;-92
2021/08/29 17:55:26;;;;;;;1.38;0.90;;;;;;;;;;4905412;29;20910;-92
2021/08/29 17:57:52;;;;;;;9.90;1.15;;;;;;;;;;4904925;29;20076;-92
2021/08/29 18:00:18;;;;;;;2.15;1.05;;;;;;;;;;4905866;29;20397;-92
2021/08/29 18:02:46;;;;;;;1.70;1.00;;;;;;;;;;4903651;29;20028;-94
2021/08/29 18:05:12;;;;;;;8.13;1.70;;;;;;;;;;4904448;29;20397;-94
2021/08/29 18:07:39;;;;;;;5.60;1.70;;;;;;;;;;4903891;29;20055;-90
2021/08/29 18:10:06;;;;;;;2.45;1.10;;;;;;;;;;4903685;29;20036;-93
2021/08/29 18:12:32;;;;;;;4.18;1.27;;;;;;;;;;4903782;29;20081;-95
2021/08/29 18:14:58;;;;;;;4.22;0.93;;;;;;;;;;4903902;29;20155;-88
2021/08/29 18:17:24;;;;;;;2.00;1.17;;;;;;;;;;4909006;29;20043;-93
2021/08/29 18:19:51;;;;;;;3.03;1.67;;;;;;;;;;4924486;29;20035;-90
2021/08/29 18:22:19;;;;;;;4.63;1.30;;;;;;;;;;4908002;29;20036;-96
2021/08/29 18:24:45;;;;;;;2.47;1.50;;;;;;;;;;4905322;29;20532;-90
2021/08/29 18:27:11;;;;;;;2.33;1.27;;;;;;;;;;4903614;29;20068;-91
2021/08/29 18:29:38;;;;;;;2.55;1.30;;;;;;;;;;4903354;29;20028;-88
2021/08/29 18:32:04;;;;;;;2.38;1.35;;;;;;;;;;4904903;29;20044;-93
2021/08/29 18:34:30;;;;;;;2.55;1.50;;;;;;;;;;4905645;29;20028;-95
2021/08/29 18:36:57;;;;;;;2.58;1.65;;;;;;;;;;4904554;29;20119;-88
2021/08/29 18:39:23;;;;;;;2.95;1.55;;;;;;;;;;4904829;29;20036;-92
2021/08/29 18:41:53;;;;;;;2.80;1.48;;;;;;;;;;4904153;29;20024;-95
2021/08/29 18:44:20;;;;;;;2.67;1.45;;;;;;;;;;4904346;29;20024;-94
2021/08/29 18:46:46;;;;;;;2.47;1.52;;;;;;;;;;4904674;29;20039;-94
2021/08/29 18:49:12;;;;;;;1.92;1.15;;;;;;;;;;4904757;29;20028;-94
2021/08/29 18:51:41;;;;;;;5.78;1.15;;;;;;;;;;4920102;29;20552;-94
2021/08/29 18:54:07;;;;;;;2.45;1.20;;;;;;;;;;4903135;29;20032;-94
2021/08/29 18:56:33;;;;;;;2.03;1.23;;;;;;;;;;4904168;29;20039;-94
2021/08/29 18:59:00;;;;;;;2.17;1.25;;;;;;;;;;4907434;29;20055;-93
2021/08/29 19:01:26;;;;;;;1.40;0.90;;;;;;;;;;4903782;29;20186;-96
2021/08/29 19:03:53;;;;;;;4.53;1.20;;;;;;;;;;4902712;29;20027;-93
2021/08/29 19:06:20;;;;;;;3.50;1.52;;;;;;;;;;4902992;29;20028;-92
2021/08/29 19:08:46;;;;;;;2.33;1.17;;;;;;;;;;4902816;29;20036;-94
2021/08/29 19:11:16;;;;;;;2.15;1.27;;;;;;;;;;4905510;29;20028;-92
2021/08/29 19:13:43;;;;;;;3.67;1.50;;;;;;;;;;4906584;29;20056;-94
2021/08/29 19:16:12;;;;;;;3.22;1.60;;;;;;;;;;4903353;29;20028;-93
2021/08/29 19:18:39;;;;;;;4.60;1.40;;;;;;;;;;4903677;29;20113;-94
2021/08/29 19:21:05;;;;;;;4.22;2.00;;;;;;;;;;4903228;29;20032;-94
2021/08/29 19:23:32;;;;;;;2.30;1.30;;;;;;;;;;4902824;29;20032;-94
2021/08/29 19:25:58;;;;;;;3.33;1.48;;;;;;;;;;4903333;29;20080;-95
2021/08/29 19:28:24;;;;;;;3.05;1.80;;;;;;;;;;4904139;29;20103;-93
2021/08/29 19:30:53;;;;;;;4.95;2.03;;;;;;;;;;4904008;29;20032;-94
2021/08/29 19:33:19;;;;;;;3.10;1.50;;;;;;;;;;4902812;29;20474;-93
2021/08/29 19:35:45;;;;;;;4.70;2.08;;;;;;;;;;4904607;29;20036;-96
2021/08/29 19:38:11;;;;;;;5.78;2.30;;;;;;;;;;4904853;29;20028;-92
2021/08/29 19:40:38;;;;;;;3.40;1.77;;;;;;;;;;4903747;29;20028;-91
2021/08/29 19:43:04;;;;;;;2.63;1.40;;;;;;;;;;4907794;29;20032;-96
2021/08/29 19:45:30;;;;;;;3.00;1.40;;;;;;;;;;4906969;29;20028;-95
2021/08/29 19:47:58;;;;;;;2.38;1.40;;;;;;;;;;4921105;29;20084;-91
2021/08/29 19:50:24;;;;;;;2.45;1.48;;;;;;;;;;4903382;29;20039;-88
2021/08/29 19:52:51;;;;;;;2.17;1.30;;;;;;;;;;4906174;29;20481;-96
2021/08/29 19:55:17;;;;;;;2.80;1.40;;;;;;;;;;4896066;29;20033;-86
2021/08/29 19:57:44;;;;;;;3.42;1.50;;;;;;;;;;4913627;29;20036;-95
2021/08/29 20:00:11;;;;;;;2.15;1.30;;;;;;;;;;4908352;29;20028;-95
2021/08/29 20:02:38;;;;;;;5.57;1.63;;;;;;;;;;4922131;29;20083;-96
2021/08/29 20:05:05;;;;;;;3.17;1.70;;;;;;;;;;4910582;29;20028;-96
2021/08/29 20:07:32;;;;;;;3.58;1.70;;;;;;;;;;4903947;29;20032;-91
2021/08/29 20:09:58;;;;;;;3.30;1.70;;;;;;;;;;4903272;29;20036;-91
2021/08/29 20:12:25;;;;;;;2.70;1.65;;;;;;;;;;4920141;29;20059;-96
2021/08/29 20:14:52;;;;;;;4.70;2.00;;;;;;;;;;4903518;29;20035;-94
2021/08/29 20:17:18;;;;;;;4.75;1.90;;;;;;;;;;4903304;29;20036;-95
2021/08/29 20:20:15;;;;;;;3.05;1.80;;;;;;;;;;4903486;29;20168;-94
2021/08/29 20:26:32;;;;;;;;;;;;;;;;;;;;;
2021/08/29 20:32:36;;;;;;;3.30;2.17;;;;;;;;;;4825009;29;20093;-95
2021/08/29 20:38:23;;;;;;;4.80;2.22;;;;;;;;;;4842295;29;20090;-96
2021/08/29 20:40:49;;;;;;;4.38;2.03;;;;;;;;;;4848025;29;20052;-93
2021/08/29 20:46:38;;;;;;;2.45;1.50;;;;;;;;;;4834809;29;20105;-96
2021/08/29 20:49:39;;;;;;;;;;;;;;;;;;;;;
2021/08/29 20:55:40;;;;;;;2.30;1.40;;;;;;;;;;4922217;29;20039;-94
2021/08/29 20:58:06;;;;;;;1.63;1.02;;;;;;;;;;4907611;29;20055;-94
2021/08/29 21:00:37;;;;;;;2.67;1.40;;;;;;;;;;4902931;29;20036;-95
2021/08/29 21:13:28;;;;;;;2.70;1.60;;;;;;;;;;4735772;30;20083;-93
2021/08/29 21:19:19;;;;;;;2.55;1.45;;;;;;;;;;4723947;30;20034;-96
2021/08/29 21:21:48;;;;;;;3.15;1.60;;;;;;;;;;4704341;30;20139;-96
2021/08/29 21:24:40;;;;;;;3.05;1.85;;;;;;;;;;4705043;30;20041;-96
2021/08/29 21:34:08;;;;;;;3.35;1.73;;;;;;;;;;4679934;30;20034;-94
2021/08/29 21:40:01;;;;;;;3.25;1.67;;;;;;;;;;4668601;30;20042;-93
2021/08/29 21:42:49;;;;;;;4.05;2.13;;;;;;;;;;4814375;29;20383;-96
2021/08/29 21:51:44;;;;;;;3.08;2.08;;;;;;;;;;4893834;29;20081;-94
2021/08/29 21:54:11;;;;;;;3.40;2.35;;;;;;;;;;4905322;29;20446;-96
2021/08/29 21:56:38;;;;;;;3.90;2.35;;;;;;;;;;4888844;29;20056;-96
2021/08/29 21:59:05;;;;;;;3.97;2.50;;;;;;;;;;4889533;29;20036;-92
2021/08/29 22:01:31;;;;;;;3.83;2.47;;;;;;;;;;4904981;29;20063;-96
2021/08/29 22:04:00;;;;;;;3.10;2.10;;;;;;;;;;4906063;29;20131;-94
2021/08/29 22:06:26;;;;;;;5.70;2.22;;;;;;;;;;4904729;29;20028;-95
2021/08/29 22:09:02;;;;;;;3.22;2.20;;;;;;;;;;4922007;29;20063;-93
2021/08/29 22:11:28;;;;;;;3.53;1.98;;;;;;;;;;4904588;29;20063;-95
2021/08/29 22:13:54;;;;;;;4.32;2.40;;;;;;;;;;4904362;29;20040;-93
2021/08/29 22:16:21;;;;;;;4.72;2.58;;;;;;;;;;4905663;29;20090;-96
2021/08/29 22:18:47;;;;;;;4.35;2.17;;;;;;;;;;4906846;29;20035;-93
2021/08/29 22:21:28;;;;;;;4.47;2.03;;;;;;;;;;4904585;29;20044;-95
2021/08/29 22:23:55;;;;;;;4.10;2.17;;;;;;;;;;4904694;29;20032;-96
2021/08/29 22:26:31;;;;;;;3.60;2.03;;;;;;;;;;4906408;29;20034;-93
2021/08/29 22:28:59;;;;;;;3.97;2.38;;;;;;;;;;4921747;29;20064;-90
2021/08/29 22:31:25;;;;;;;4.00;2.33;;;;;;;;;;4909614;29;20028;-93
2021/08/29 22:33:51;;;;;;;4.70;2.30;;;;;;;;;;4907104;29;20056;-95
2021/08/29 22:36:17;;;;;;;3.83;2.53;;;;;;;;;;4905695;29;20036;-96
2021/08/29 22:38:44;;;;;;;3.53;2.33;;;;;;;;;;4910662;29;20024;-95
2021/08/29 22:41:10;;;;;;;5.50;2.10;;;;;;;;;;4905714;29;20039;-92
2021/08/29 22:43:36;;;;;;;4.82;2.47;;;;;;;;;;4904449;29;20032;-89
2021/08/29 22:46:06;;;;;;;3.22;2.00;;;;;;;;;;4909029;29;20131;-91
2021/08/29 22:48:44;;;;;;;3.28;2.20;;;;;;;;;;4893173;29;20044;-96
2021/08/29 22:51:16;;;;;;;3.80;2.22;;;;;;;;;;4915720;29;20040;-96
2021/08/29 22:53:43;;;;;;;4.47;2.50;;;;;;;;;;4909315;29;20042;-89
2021/08/29 22:56:18;;;;;;;3.47;2.05;;;;;;;;;;4907133;29;20062;-96
2021/08/29 22:59:01;;;;;;;;;;;;;;;;;;;;;
2021/08/29 23:01:43;;;;;;;4.35;2.53;;;;;;;;;;4921455;29;20103;-96
2021/08/29 23:04:09;;;;;;;4.57;2.10;;;;;;;;;;4908297;29;20076;-90
2021/08/29 23:06:35;;;;;;;3.97;2.40;;;;;;;;;;4904908;29;20032;-96